Time;durP1;ratioP1;P1;durP2;ratioP2;P2;SDS_P1;SDS_P2;PMS_P1;PMS_P2;Temp;Humidity;BMP_temperature;BMP_pressure;BME280_temperature;BME280_humidity;BME280_pressure;Samples;Min_cycle;Max_cycle;Signal;HPM_P1;HPM_P2
2023/07/06 00:00:07;;;;;;;;;25.00;19.50;;;;;;;;119883;1192;25462;-73
2023/07/06 00:02:55;;;;;;;;;23.00;17.50;;;;;;;;119549;1192;25028;-73
2023/07/06 00:05:25;;;;;;;;;22.00;18.00;;;;;;;;119888;1192;24898;-73
2023/07/06 00:07:53;;;;;;;;;12.50;12.00;;;;;;;;119881;1192;25118;-73
2023/07/06 00:10:22;;;;;;;;;15.50;15.50;;;;;;;;119862;1192;25220;-73
2023/07/06 00:12:51;;;;;;;;;20.00;17.33;;;;;;;;119871;1184;24898;-73
2023/07/06 00:15:19;;;;;;;;;22.00;17.00;;;;;;;;119852;1192;24870;-73
2023/07/06 00:17:47;;;;;;;;;15.00;14.00;;;;;;;;119876;1192;25873;-73
2023/07/06 00:20:16;;;;;;;;;20.00;18.00;;;;;;;;119847;1192;24878;-73
2023/07/06 00:22:46;;;;;;;;;22.00;17.50;;;;;;;;119893;1184;25181;-73
2023/07/06 00:25:14;;;;;;;;;19.33;14.00;;;;;;;;119859;1192;25786;-74
2023/07/06 00:27:43;;;;;;;;;22.00;17.00;;;;;;;;119704;1192;25581;-73
2023/07/06 00:30:20;;;;;;;;;19.00;16.33;;;;;;;;119869;1192;25527;-73
2023/07/06 00:32:48;;;;;;;;;22.33;19.67;;;;;;;;119850;1192;25378;-73
2023/07/06 00:35:17;;;;;;;;;18.33;17.00;;;;;;;;119858;1184;25989;-73
2023/07/06 00:37:49;;;;;;;;;21.25;16.75;;;;;;;;119874;1192;25684;-73
2023/07/06 00:40:17;;;;;;;;;22.67;18.67;;;;;;;;119874;1183;25633;-73
2023/07/06 00:42:45;;;;;;;;;16.67;14.00;;;;;;;;119876;1192;25085;-72
2023/07/06 00:45:15;;;;;;;;;17.00;16.00;;;;;;;;119870;1184;24752;-72
2023/07/06 00:47:51;;;;;;;;;20.75;18.25;;;;;;;;119841;1180;25345;-73
2023/07/06 00:50:22;;;;;;;;;17.33;12.67;;;;;;;;119505;1185;25079;-73
2023/07/06 00:52:54;;;;;;;;;19.00;17.00;;;;;;;;119505;1192;25325;-73
2023/07/06 00:55:25;;;;;;;;;21.50;18.00;;;;;;;;119874;1192;24880;-73
2023/07/06 00:57:59;;;;;;;;;18.67;17.67;;;;;;;;119463;1192;24965;-73
2023/07/06 01:00:27;;;;;;;;;19.00;16.50;;;;;;;;119878;1192;25300;-73
2023/07/06 01:02:59;;;;;;;;;15.00;13.00;;;;;;;;119880;1192;25515;-73
2023/07/06 01:05:28;;;;;;;;;14.50;14.50;;;;;;;;119487;1192;24830;-73
2023/07/06 01:08:04;;;;;;;;;19.50;15.00;;;;;;;;119465;1192;24992;-73
2023/07/06 01:10:33;;;;;;;;;19.67;14.33;;;;;;;;119476;1192;24901;-73
2023/07/06 01:13:02;;;;;;;;;19.00;14.33;;;;;;;;119479;1185;25528;-72
2023/07/06 01:15:34;;;;;;;;;18.50;16.00;;;;;;;;119512;1186;25103;-72
2023/07/06 01:18:18;;;;;;;;;17.00;14.00;;;;;;;;119477;1192;25645;-72
2023/07/06 01:21:09;;;;;;;;;15.50;14.50;;;;;;;;119882;1192;24813;-72
2023/07/06 01:24:10;;;;;;;;;16.50;11.00;;;;;;;;119890;1192;25507;-73
2023/07/06 01:26:47;;;;;;;;;16.00;13.00;;;;;;;;119882;1183;25540;-72
2023/07/06 01:29:57;;;;;;;;;14.00;14.00;;;;;;;;119881;1192;24775;-73
2023/07/06 01:32:28;;;;;;;;;20.67;18.00;;;;;;;;119859;1192;24811;-74
2023/07/06 01:35:13;;;;;;;;;16.67;16.67;;;;;;;;119486;1192;25311;-73
2023/07/06 01:37:43;;;;;;;;;16.33;14.67;;;;;;;;119856;1192;24902;-73
2023/07/06 01:40:11;;;;;;;;;18.00;15.00;;;;;;;;119466;1192;26125;-73
2023/07/06 01:42:42;;;;;;;;;9.67;8.67;;;;;;;;119501;1192;24842;-73
2023/07/06 01:45:18;;;;;;;;;10.00;8.00;;;;;;;;119872;1192;24952;-73
2023/07/06 01:47:52;;;;;;;;;11.67;11.67;;;;;;;;119497;1192;24968;-71
2023/07/06 01:50:28;;;;;;;;;17.33;15.00;;;;;;;;119496;1186;25088;-73
2023/07/06 01:53:04;;;;;;;;;15.50;15.00;;;;;;;;119483;1192;25193;-73
2023/07/06 01:55:44;;;;;;;;;14.00;12.00;;;;;;;;119491;1192;25255;-73
2023/07/06 01:58:48;;;;;;;;;19.00;12.00;;;;;;;;119495;1192;24695;-72
2023/07/06 02:01:29;;;;;;;;;12.00;12.00;;;;;;;;119534;1192;25454;-73
2023/07/06 02:03:58;;;;;;;;;16.50;16.50;;;;;;;;119488;1192;24793;-73
2023/07/06 02:06:27;;;;;;;;;12.00;12.00;;;;;;;;119494;1192;25267;-73
2023/07/06 02:08:56;;;;;;;;;20.33;14.00;;;;;;;;119529;1184;25182;-73
2023/07/06 02:11:25;;;;;;;;;16.50;15.00;;;;;;;;119886;1192;25389;-73
2023/07/06 02:13:53;;;;;;;;;15.50;14.50;;;;;;;;119880;1184;25030;-73
2023/07/06 02:16:21;;;;;;;;;15.00;13.00;;;;;;;;119866;1192;25582;-73
2023/07/06 02:18:50;;;;;;;;;15.00;12.33;;;;;;;;119508;1186;25442;-73
2023/07/06 02:21:18;;;;;;;;;17.00;12.00;;;;;;;;119509;1185;25533;-73
2023/07/06 02:23:47;;;;;;;;;16.25;14.50;;;;;;;;119868;1192;25284;-73
2023/07/06 02:26:15;;;;;;;;;16.00;16.00;;;;;;;;119857;1192;24921;-73
2023/07/06 02:28:43;;;;;;;;;17.00;15.33;;;;;;;;119863;1192;26116;-73
2023/07/06 02:31:12;;;;;;;;;15.00;13.00;;;;;;;;119864;1192;24948;-73
2023/07/06 02:33:40;;;;;;;;;20.33;15.33;;;;;;;;119856;1183;25763;-73
2023/07/06 02:36:08;;;;;;;;;16.50;13.75;;;;;;;;119873;1192;25157;-73
2023/07/06 02:38:37;;;;;;;;;16.00;13.00;;;;;;;;119870;1192;24949;-73
2023/07/06 02:41:05;;;;;;;;;15.00;13.75;;;;;;;;119477;1192;25164;-73
2023/07/06 02:43:34;;;;;;;;;16.00;11.00;;;;;;;;119870;1192;25615;-73
2023/07/06 02:46:03;;;;;;;;;14.00;12.00;;;;;;;;119512;1192;24925;-72
2023/07/06 02:48:32;;;;;;;;;11.50;10.50;;;;;;;;119523;1192;25440;-73
2023/07/06 02:51:00;;;;;;;;;17.25;16.50;;;;;;;;119860;1184;25255;-73
2023/07/06 02:53:29;;;;;;;;;18.67;15.33;;;;;;;;119885;1192;24876;-73
2023/07/06 02:55:58;;;;;;;;;17.00;13.00;;;;;;;;119888;1192;25160;-73
2023/07/06 02:58:27;;;;;;;;;16.33;16.00;;;;;;;;119872;1192;24787;-73
2023/07/06 03:00:55;;;;;;;;;11.75;11.75;;;;;;;;119894;1183;25024;-73
2023/07/06 03:03:26;;;;;;;;;17.00;16.00;;;;;;;;119884;1192;25048;-73
2023/07/06 03:05:54;;;;;;;;;16.50;15.50;;;;;;;;119875;1192;25211;-73
2023/07/06 03:08:23;;;;;;;;;12.67;12.67;;;;;;;;119883;1192;25782;-73
2023/07/06 03:10:53;;;;;;;;;16.00;15.00;;;;;;;;119872;1192;25503;-73
2023/07/06 03:13:21;;;;;;;;;11.00;11.00;;;;;;;;119516;1192;24917;-73
2023/07/06 03:15:51;;;;;;;;;16.00;13.33;;;;;;;;119896;1192;25061;-74
2023/07/06 03:18:20;;;;;;;;;14.67;10.67;;;;;;;;119478;1192;25844;-73
2023/07/06 03:20:48;;;;;;;;;17.00;14.50;;;;;;;;119488;1185;24799;-74
2023/07/06 03:23:18;;;;;;;;;16.00;13.50;;;;;;;;119500;1192;24766;-73
2023/07/06 03:25:52;;;;;;;;;15.33;13.00;;;;;;;;119465;1189;25210;-73
2023/07/06 03:28:23;;;;;;;;;18.50;13.75;;;;;;;;119894;1192;25371;-73
2023/07/06 03:30:56;;;;;;;;;15.00;14.00;;;;;;;;119397;1190;25589;-73
2023/07/06 03:33:25;;;;;;;;;14.00;11.33;;;;;;;;119406;1194;24845;-73
2023/07/06 03:35:54;;;;;;;;;16.33;16.33;;;;;;;;119456;1194;25249;-74
2023/07/06 03:38:26;;;;;;;;;14.67;12.00;;;;;;;;119410;1186;25511;-73
2023/07/06 03:40:54;;;;;;;;;17.50;14.50;;;;;;;;119419;1186;25614;-73
2023/07/06 03:43:22;;;;;;;;;18.67;15.33;;;;;;;;119417;1194;25365;-74
2023/07/06 03:45:51;;;;;;;;;16.50;13.50;;;;;;;;119416;1194;24888;-75
2023/07/06 03:48:21;;;;;;;;;19.00;13.33;;;;;;;;119423;1186;25315;-79
2023/07/06 03:50:52;;;;;;;;;16.00;14.00;;;;;;;;119563;1193;24920;-80
2023/07/06 03:53:21;;;;;;;;;15.50;15.50;;;;;;;;119609;1189;24872;-74
2023/07/06 03:55:53;;;;;;;;;15.50;13.25;;;;;;;;119635;1189;25938;-80
2023/07/06 03:58:22;;;;;;;;;16.00;15.00;;;;;;;;119439;1186;25421;-80
2023/07/06 04:00:51;;;;;;;;;22.00;15.50;;;;;;;;119474;1189;24739;-80
2023/07/06 04:03:19;;;;;;;;;20.00;17.00;;;;;;;;119665;1192;25607;-80
2023/07/06 04:05:48;;;;;;;;;15.00;14.33;;;;;;;;119487;1185;25019;-79
2023/07/06 04:08:19;;;;;;;;;14.33;14.00;;;;;;;;119573;1186;25139;-81
2023/07/06 04:10:48;;;;;;;;;19.50;16.50;;;;;;;;119451;1190;24761;-80
2023/07/06 04:13:17;;;;;;;;;18.67;16.00;;;;;;;;119497;1189;25876;-80
2023/07/06 04:15:47;;;;;;;;;19.33;18.00;;;;;;;;119574;1193;24814;-80
2023/07/06 04:18:15;;;;;;;;;16.75;15.25;;;;;;;;119542;1189;25504;-80
2023/07/06 04:20:44;;;;;;;;;13.33;13.00;;;;;;;;119482;1192;24907;-80
2023/07/06 04:23:12;;;;;;;;;20.50;17.50;;;;;;;;119432;1190;25104;-80
2023/07/06 04:25:41;;;;;;;;;16.00;15.00;;;;;;;;119476;1192;25149;-80
2023/07/06 04:28:14;;;;;;;;;21.00;17.33;;;;;;;;119832;1188;25490;-78
2023/07/06 04:30:45;;;;;;;;;20.67;18.00;;;;;;;;119471;1186;24790;-78
2023/07/06 04:33:19;;;;;;;;;17.00;17.00;;;;;;;;119466;1186;25423;-74
2023/07/06 04:35:51;;;;;;;;;21.00;17.00;;;;;;;;119466;1193;25484;-73
2023/07/06 04:38:21;;;;;;;;;20.67;17.33;;;;;;;;119429;1193;25325;-74
2023/07/06 04:40:51;;;;;;;;;13.00;13.00;;;;;;;;119528;1189;24807;-67
2023/07/06 04:43:19;;;;;;;;;21.00;19.67;;;;;;;;119437;1192;24855;-68
2023/07/06 04:45:48;;;;;;;;;18.00;18.00;;;;;;;;119789;1192;25518;-70
2023/07/06 04:48:17;;;;;;;;;18.00;17.00;;;;;;;;119521;1192;25675;-71
2023/07/06 04:50:46;;;;;;;;;20.00;18.50;;;;;;;;119864;1189;25100;-70
2023/07/06 04:53:16;;;;;;;;;22.00;20.00;;;;;;;;119794;1192;25481;-69
2023/07/06 04:55:45;;;;;;;;;20.00;19.00;;;;;;;;119780;1185;25621;-69
2023/07/06 04:58:14;;;;;;;;;23.67;21.00;;;;;;;;119442;1193;25649;-69
2023/07/06 05:00:45;;;;;;;;;17.67;16.67;;;;;;;;119452;1185;25771;-76
2023/07/06 05:03:14;;;;;;;;;21.00;19.67;;;;;;;;119689;1193;25111;-76
2023/07/06 05:05:45;;;;;;;;;19.00;16.67;;;;;;;;119688;1193;25645;-73
2023/07/06 05:08:16;;;;;;;;;21.67;15.33;;;;;;;;119450;1193;25113;-72
2023/07/06 05:10:48;;;;;;;;;21.50;20.00;;;;;;;;119698;1186;25159;-74
2023/07/06 05:13:17;;;;;;;;;19.00;18.00;;;;;;;;119688;1192;24877;-76
2023/07/06 05:15:45;;;;;;;;;17.00;17.00;;;;;;;;119476;1187;24742;-74
2023/07/06 05:18:14;;;;;;;;;19.50;19.50;;;;;;;;119633;1189;25469;-73
2023/07/06 05:20:42;;;;;;;;;19.00;18.50;;;;;;;;119737;1192;25339;-73
2023/07/06 05:23:11;;;;;;;;;20.00;17.50;;;;;;;;119713;1185;25538;-78
2023/07/06 05:25:39;;;;;;;;;20.67;18.00;;;;;;;;119867;1188;25387;-78
2023/07/06 05:28:10;;;;;;;;;19.00;18.00;;;;;;;;119865;1184;24943;-79
2023/07/06 05:30:40;;;;;;;;;19.67;16.67;;;;;;;;119886;1192;25201;-74
2023/07/06 05:33:08;;;;;;;;;24.00;19.00;;;;;;;;119484;1192;25471;-74
2023/07/06 05:35:37;;;;;;;;;25.67;20.33;;;;;;;;119428;1186;25219;-79
2023/07/06 05:38:10;;;;;;;;;22.67;20.33;;;;;;;;119860;1192;24807;-68
2023/07/06 05:40:39;;;;;;;;;21.00;19.00;;;;;;;;119662;1193;25001;-76
2023/07/06 05:43:09;;;;;;;;;27.00;20.67;;;;;;;;119439;1193;25099;-74
2023/07/06 05:45:37;;;;;;;;;25.33;20.00;;;;;;;;119725;1184;25462;-76
2023/07/06 05:48:06;;;;;;;;;43.67;32.00;;;;;;;;119468;1193;25052;-78
2023/07/06 05:50:34;;;;;;;;;41.00;31.50;;;;;;;;119674;1193;25634;-77
2023/07/06 05:53:02;;;;;;;;;49.50;34.00;;;;;;;;119674;1193;24872;-74
2023/07/06 05:55:31;;;;;;;;;61.50;44.50;;;;;;;;119447;1193;24760;-74
2023/07/06 05:57:59;;;;;;;;;71.50;49.00;;;;;;;;119720;1192;25447;-68
2023/07/06 06:00:28;;;;;;;;;124.00;79.50;;;;;;;;119841;1180;25385;-65
2023/07/06 06:02:57;;;;;;;;;142.00;81.00;;;;;;;;119877;1183;25218;-66
2023/07/06 06:05:25;;;;;;;;;128.50;77.00;;;;;;;;119871;1192;25287;-64
2023/07/06 06:07:53;;;;;;;;;131.00;83.00;;;;;;;;119789;1188;24894;-67
2023/07/06 06:10:22;;;;;;;;;108.00;68.00;;;;;;;;119763;1186;24994;-65
2023/07/06 06:12:51;;;;;;;;;122.50;72.00;;;;;;;;119673;1193;25064;-67
2023/07/06 06:15:19;;;;;;;;;104.00;63.00;;;;;;;;119696;1193;25670;-66
2023/07/06 06:17:48;;;;;;;;;107.00;70.00;;;;;;;;119697;1193;25521;-67
2023/07/06 06:20:16;;;;;;;;;98.00;63.00;;;;;;;;119468;1186;25349;-64
2023/07/06 06:22:45;;;;;;;;;93.50;58.50;;;;;;;;119672;1193;25039;-64
2023/07/06 06:25:13;;;;;;;;;107.00;66.33;;;;;;;;119818;1189;24797;-65
2023/07/06 06:27:43;;;;;;;;;97.00;58.00;;;;;;;;119816;1189;25755;-64
2023/07/06 06:30:12;;;;;;;;;86.00;59.50;;;;;;;;119787;1188;25022;-65
2023/07/06 06:32:41;;;;;;;;;80.00;50.00;;;;;;;;119493;1192;25406;-66
2023/07/06 06:35:24;;;;;;;;;77.00;47.50;;;;;;;;119490;1192;25234;-65
2023/07/06 06:37:52;;;;;;;;;65.67;43.00;;;;;;;;119844;1183;25378;-69
2023/07/06 06:40:21;;;;;;;;;67.33;45.00;;;;;;;;119781;1192;25101;-66
2023/07/06 06:42:50;;;;;;;;;66.00;42.00;;;;;;;;119662;1193;25040;-67
2023/07/06 06:45:19;;;;;;;;;72.50;47.00;;;;;;;;119688;1193;25367;-67
2023/07/06 06:47:48;;;;;;;;;69.75;47.75;;;;;;;;119491;1185;25154;-66
2023/07/06 06:50:19;;;;;;;;;75.33;47.67;;;;;;;;119685;1193;25056;-67
2023/07/06 06:52:49;;;;;;;;;64.50;42.25;;;;;;;;119458;1193;25000;-67
2023/07/06 06:55:18;;;;;;;;;57.50;41.50;;;;;;;;119453;1193;24926;-67
2023/07/06 06:57:47;;;;;;;;;66.00;46.00;;;;;;;;119685;1193;24812;-67
2023/07/06 07:00:16;;;;;;;;;61.00;40.50;;;;;;;;119457;1185;25713;-65
2023/07/06 07:02:45;;;;;;;;;57.00;38.50;;;;;;;;119674;1193;25183;-67
2023/07/06 07:05:15;;;;;;;;;63.00;42.67;;;;;;;;119466;1193;24986;-67
2023/07/06 07:07:44;;;;;;;;;57.33;35.33;;;;;;;;119675;1185;25144;-68
2023/07/06 07:10:12;;;;;;;;;51.00;34.00;;;;;;;;119680;1193;24710;-67
2023/07/06 07:12:42;;;;;;;;;50.67;37.67;;;;;;;;119695;1189;25172;-67
2023/07/06 07:15:12;;;;;;;;;46.50;31.50;;;;;;;;119676;1193;25456;-68
2023/07/06 07:17:41;;;;;;;;;42.50;36.00;;;;;;;;119444;1193;25403;-69
2023/07/06 07:20:10;;;;;;;;;47.00;35.67;;;;;;;;119700;1193;25647;-66
2023/07/06 07:22:39;;;;;;;;;51.50;37.00;;;;;;;;119717;1184;25493;-61
2023/07/06 07:25:08;;;;;;;;;45.00;33.50;;;;;;;;119488;1187;25342;-61
2023/07/06 07:27:37;;;;;;;;;48.00;29.50;;;;;;;;119497;1192;25398;-61
2023/07/06 07:30:06;;;;;;;;;42.00;33.25;;;;;;;;119738;1192;24849;-62
2023/07/06 07:32:34;;;;;;;;;50.00;34.50;;;;;;;;119645;1185;24997;-61
2023/07/06 07:35:03;;;;;;;;;36.50;30.00;;;;;;;;119713;1192;25464;-61
2023/07/06 07:37:31;;;;;;;;;36.00;31.00;;;;;;;;119697;1185;25506;-61
2023/07/06 07:40:00;;;;;;;;;41.00;30.00;;;;;;;;119693;1192;25494;-61
2023/07/06 07:42:30;;;;;;;;;40.50;31.50;;;;;;;;119577;1189;24879;-61
2023/07/06 07:44:58;;;;;;;;;31.25;24.25;;;;;;;;119800;1188;25325;-61
2023/07/06 07:47:27;;;;;;;;;33.50;31.00;;;;;;;;119516;1186;25696;-61
2023/07/06 07:49:57;;;;;;;;;43.00;31.00;;;;;;;;119819;1188;26076;-61
2023/07/06 07:52:28;;;;;;;;;41.00;33.00;;;;;;;;119784;1189;24895;-61
2023/07/06 07:54:57;;;;;;;;;28.33;26.00;;;;;;;;119802;1186;24994;-61
2023/07/06 07:57:25;;;;;;;;;27.25;21.25;;;;;;;;119608;1192;25291;-62
2023/07/06 07:59:54;;;;;;;;;35.50;26.00;;;;;;;;119827;1192;25538;-63
2023/07/06 08:02:22;;;;;;;;;23.00;20.50;;;;;;;;119747;1189;25001;-61
2023/07/06 08:04:51;;;;;;;;;33.00;25.00;;;;;;;;119771;1192;25080;-61
2023/07/06 08:07:19;;;;;;;;;25.50;21.00;;;;;;;;119507;1192;25589;-61
2023/07/06 08:09:48;;;;;;;;;30.33;21.33;;;;;;;;119759;1192;24806;-62
2023/07/06 08:12:16;;;;;;;;;26.50;22.50;;;;;;;;119799;1188;25038;-62
2023/07/06 08:14:44;;;;;;;;;31.00;23.33;;;;;;;;119804;1188;25401;-61
2023/07/06 08:17:14;;;;;;;;;19.00;17.50;;;;;;;;119457;1192;25276;-61
2023/07/06 08:19:45;;;;;;;;;19.50;19.00;;;;;;;;119697;1193;24930;-66
2023/07/06 08:22:34;;;;;;;;;23.00;22.67;;;;;;;;119494;1193;25310;-70
2023/07/06 08:25:08;;;;;;;;;24.67;17.67;;;;;;;;119838;1189;24803;-66
2023/07/06 08:27:40;;;;;;;;;16.00;16.00;;;;;;;;119481;1183;25844;-68
2023/07/06 08:30:08;;;;;;;;;27.00;20.00;;;;;;;;119799;1184;25669;-67
2023/07/06 08:32:37;;;;;;;;;22.67;18.00;;;;;;;;119806;1192;25023;-66
2023/07/06 08:35:06;;;;;;;;;18.25;15.75;;;;;;;;119549;1183;25369;-67
2023/07/06 08:37:36;;;;;;;;;20.00;17.00;;;;;;;;119790;1179;25595;-67
2023/07/06 08:40:05;;;;;;;;;23.00;17.67;;;;;;;;119774;1185;24947;-67
2023/07/06 08:42:33;;;;;;;;;20.50;19.50;;;;;;;;119768;1185;24961;-69
2023/07/06 08:45:02;;;;;;;;;18.00;18.00;;;;;;;;119428;1192;24838;-70
2023/07/06 08:47:30;;;;;;;;;20.00;19.00;;;;;;;;119478;1186;25383;-69
2023/07/06 08:50:02;;;;;;;;;19.50;17.00;;;;;;;;119793;1189;25476;-69
2023/07/06 08:52:31;;;;;;;;;22.75;16.75;;;;;;;;119500;1180;25128;-68
2023/07/06 08:55:00;;;;;;;;;21.00;17.00;;;;;;;;119808;1188;25198;-68
2023/07/06 08:57:30;;;;;;;;;26.00;18.33;;;;;;;;119471;1189;24892;-68
2023/07/06 08:59:59;;;;;;;;;20.00;16.00;;;;;;;;119737;1192;25066;-69
2023/07/06 09:02:30;;;;;;;;;15.50;13.75;;;;;;;;119428;1189;25508;-68
2023/07/06 09:05:06;;;;;;;;;20.33;17.33;;;;;;;;119854;1184;25415;-68
2023/07/06 09:07:42;;;;;;;;;23.25;16.50;;;;;;;;119464;1190;25509;-68
2023/07/06 09:10:25;;;;;;;;;19.00;17.33;;;;;;;;119465;1192;25035;-68
2023/07/06 09:12:56;;;;;;;;;15.00;14.00;;;;;;;;119445;1189;25639;-68
2023/07/06 09:15:27;;;;;;;;;16.50;15.00;;;;;;;;119679;1189;25497;-68
2023/07/06 09:18:02;;;;;;;;;17.67;15.67;;;;;;;;119830;1192;24805;-67
2023/07/06 09:20:37;;;;;;;;;16.75;15.50;;;;;;;;119620;1192;25480;-67
2023/07/06 09:23:06;;;;;;;;;17.67;13.67;;;;;;;;119594;1192;25731;-67
2023/07/06 09:25:38;;;;;;;;;16.50;12.50;;;;;;;;119763;1189;25080;-67
2023/07/06 09:28:13;;;;;;;;;17.67;15.00;;;;;;;;119474;1192;24875;-68
2023/07/06 09:30:42;;;;;;;;;14.50;13.50;;;;;;;;119496;1192;25211;-67
2023/07/06 09:33:19;;;;;;;;;18.00;14.00;;;;;;;;119480;1192;25050;-68
2023/07/06 09:35:50;;;;;;;;;12.67;12.00;;;;;;;;119844;1183;24975;-68
2023/07/06 09:38:19;;;;;;;;;18.00;16.00;;;;;;;;119558;1189;25194;-68
2023/07/06 09:40:48;;;;;;;;;12.00;10.67;;;;;;;;119508;1190;25478;-68
2023/07/06 09:43:22;;;;;;;;;22.00;16.00;;;;;;;;119830;1189;24923;-69
2023/07/06 09:45:51;;;;;;;;;18.00;15.00;;;;;;;;119454;1192;24714;-69
2023/07/06 09:48:27;;;;;;;;;17.50;14.50;;;;;;;;119467;1192;24892;-68
2023/07/06 09:51:33;;;;;;;;;15.00;12.50;;;;;;;;119756;1192;25061;-68
2023/07/06 09:54:06;;;;;;;;;9.00;9.00;;;;;;;;119608;1188;24872;-68
2023/07/06 09:56:35;;;;;;;;;15.00;14.67;;;;;;;;119486;1192;24691;-69
2023/07/06 09:59:03;;;;;;;;;15.00;10.67;;;;;;;;119764;1188;24917;-69
2023/07/06 10:02:05;;;;;;;;;14.00;13.33;;;;;;;;119496;1189;25188;-69
2023/07/06 10:04:55;;;;;;;;;7.33;7.33;;;;;;;;119527;1189;25205;-69
2023/07/06 10:07:34;;;;;;;;;16.00;10.00;;;;;;;;119850;1179;25374;-69
2023/07/06 10:10:06;;;;;;;;;12.00;10.00;;;;;;;;119848;1183;24991;-70
2023/07/06 10:12:40;;;;;;;;;11.00;11.00;;;;;;;;119798;1188;25208;-69
2023/07/06 10:15:25;;;;;;;;;10.25;10.25;;;;;;;;119839;1183;25937;-69
2023/07/06 10:18:10;;;;;;;;;15.50;14.00;;;;;;;;119508;1190;25180;-70
2023/07/06 10:21:04;;;;;;;;;17.00;13.00;;;;;;;;119830;1188;24796;-66
2023/07/06 10:23:55;;;;;;;;;10.00;9.00;;;;;;;;119488;1186;25158;-71
2023/07/06 10:26:32;;;;;;;;;11.50;11.25;;;;;;;;119535;1192;24866;-68
2023/07/06 10:29:16;;;;;;;;;12.00;11.00;;;;;;;;119550;1180;24772;-71
2023/07/06 10:31:57;;;;;;;;;12.67;12.67;;;;;;;;119498;1192;25695;-70
2023/07/06 10:34:33;;;;;;;;;14.00;10.50;;;;;;;;119478;1193;25444;-73
2023/07/06 10:37:03;;;;;;;;;12.33;10.67;;;;;;;;119797;1192;25423;-69
2023/07/06 10:39:32;;;;;;;;;16.00;14.00;;;;;;;;119507;1192;25191;-76
2023/07/06 10:42:02;;;;;;;;;15.67;12.67;;;;;;;;119815;1192;25290;-73
2023/07/06 10:44:45;;;;;;;;;14.00;10.00;;;;;;;;119480;1189;25041;-75
2023/07/06 10:47:28;;;;;;;;;15.50;12.00;;;;;;;;119696;1192;25100;-72
2023/07/06 10:50:12;;;;;;;;;12.00;10.50;;;;;;;;119689;1193;25087;-75
2023/07/06 10:52:42;;;;;;;;;13.33;11.67;;;;;;;;119682;1193;25434;-77
2023/07/06 10:55:18;;;;;;;;;12.00;10.00;;;;;;;;119484;1193;24883;-73
2023/07/06 10:57:54;;;;;;;;;11.00;10.00;;;;;;;;119446;1193;25553;-71
2023/07/06 11:00:31;;;;;;;;;15.33;9.67;;;;;;;;119739;1189;25731;-76
2023/07/06 11:03:00;;;;;;;;;14.00;13.00;;;;;;;;119490;1193;25793;-71
2023/07/06 11:05:33;;;;;;;;;14.00;8.00;;;;;;;;119531;1190;25676;-70
2023/07/06 11:08:10;;;;;;;;;14.00;11.50;;;;;;;;119816;1189;26130;-71
2023/07/06 11:10:51;;;;;;;;;15.00;14.00;;;;;;;;119855;1192;25247;-69
2023/07/06 11:13:21;;;;;;;;;11.00;9.33;;;;;;;;119891;1192;24690;-69
2023/07/06 11:15:56;;;;;;;;;16.00;12.00;;;;;;;;119490;1185;25074;-70
2023/07/06 11:18:32;;;;;;;;;13.33;9.67;;;;;;;;119867;1192;25494;-74
2023/07/06 11:21:25;;;;;;;;;13.00;10.00;;;;;;;;119806;1183;25262;-73
2023/07/06 11:24:06;;;;;;;;;12.50;9.00;;;;;;;;119672;1193;25171;-74
2023/07/06 11:26:35;;;;;;;;;9.50;8.50;;;;;;;;119462;1193;25378;-74
2023/07/06 11:29:07;;;;;;;;;9.00;9.00;;;;;;;;119663;1193;25624;-72
2023/07/06 11:32:04;;;;;;;;;18.00;10.00;;;;;;;;119472;1193;26495;-73
2023/07/06 11:34:54;;;;;;;;;10.00;10.00;;;;;;;;119704;1189;25427;-73
2023/07/06 11:37:26;;;;;;;;;10.50;10.50;;;;;;;;119429;1193;25505;-73
2023/07/06 11:39:57;;;;;;;;;16.00;11.00;;;;;;;;119699;1185;25190;-73
2023/07/06 11:42:37;;;;;;;;;13.00;10.00;;;;;;;;119692;1185;25704;-74
2023/07/06 11:45:32;;;;;;;;;13.00;10.67;;;;;;;;119770;1192;24827;-73
2023/07/06 11:48:06;;;;;;;;;13.50;10.50;;;;;;;;119498;1192;25695;-73
2023/07/06 11:50:37;;;;;;;;;11.25;11.25;;;;;;;;119870;1189;25614;-73
2023/07/06 11:53:17;;;;;;;;;15.00;10.00;;;;;;;;119501;1185;25441;-73
2023/07/06 11:55:54;;;;;;;;;11.25;11.25;;;;;;;;119785;1192;24758;-73
2023/07/06 11:58:43;;;;;;;;;11.50;10.00;;;;;;;;119528;1189;25423;-72
2023/07/06 12:01:32;;;;;;;;;10.00;9.33;;;;;;;;119824;1188;25134;-73
2023/07/06 12:04:02;;;;;;;;;10.50;9.00;;;;;;;;119619;1186;24800;-73
2023/07/06 12:06:31;;;;;;;;;8.00;8.00;;;;;;;;119473;1192;25298;-73
2023/07/06 12:09:03;;;;;;;;;12.67;12.67;;;;;;;;119772;1192;25069;-73
2023/07/06 12:11:31;;;;;;;;;10.67;8.67;;;;;;;;119468;1183;25698;-72
2023/07/06 12:14:00;;;;;;;;;11.00;10.00;;;;;;;;119433;1180;24946;-63
2023/07/06 12:16:39;;;;;;;;;8.75;6.50;;;;;;;;119443;1180;24984;-66
2023/07/06 12:19:17;;;;;;;;;12.50;11.00;;;;;;;;119510;1189;25071;-64
2023/07/06 12:21:52;;;;;;;;;9.50;9.00;;;;;;;;119496;1184;25359;-65
2023/07/06 12:24:23;;;;;;;;;11.75;11.25;;;;;;;;119856;1192;25461;-64
2023/07/06 12:26:55;;;;;;;;;9.00;8.00;;;;;;;;119858;1183;25558;-63
2023/07/06 12:29:26;;;;;;;;;8.67;7.67;;;;;;;;119843;1192;25638;-64
2023/07/06 12:32:01;;;;;;;;;13.00;13.00;;;;;;;;119495;1192;24969;-61
2023/07/06 12:34:32;;;;;;;;;13.67;12.33;;;;;;;;119512;1185;24791;-66
2023/07/06 12:37:02;;;;;;;;;13.50;10.50;;;;;;;;119520;1184;24898;-64
2023/07/06 12:39:37;;;;;;;;;12.25;11.00;;;;;;;;119534;1190;24924;-66
2023/07/06 12:42:09;;;;;;;;;14.00;13.00;;;;;;;;119476;1192;25612;-68
2023/07/06 12:44:43;;;;;;;;;14.00;14.00;;;;;;;;119553;1185;24978;-69
2023/07/06 12:47:21;;;;;;;;;13.67;11.00;;;;;;;;119528;1192;25024;-70
2023/07/06 12:49:52;;;;;;;;;13.00;11.50;;;;;;;;119839;1191;26217;-69
2023/07/06 12:52:23;;;;;;;;;11.00;11.00;;;;;;;;119726;1183;25126;-71
2023/07/06 12:54:56;;;;;;;;;12.50;10.00;;;;;;;;119845;1189;25050;-69
2023/07/06 12:57:30;;;;;;;;;13.00;10.00;;;;;;;;119818;1192;24858;-68
2023/07/06 13:00:13;;;;;;;;;10.33;10.00;;;;;;;;119498;1191;25482;-65
2023/07/06 13:02:42;;;;;;;;;13.67;13.00;;;;;;;;119829;1192;25034;-66
2023/07/06 13:05:22;;;;;;;;;13.00;11.00;;;;;;;;119524;1186;25164;-64
2023/07/06 13:07:51;;;;;;;;;12.33;10.33;;;;;;;;119816;1184;24915;-65
2023/07/06 13:10:22;;;;;;;;;13.75;12.00;;;;;;;;119837;1189;25569;-66
2023/07/06 13:12:54;;;;;;;;;14.00;11.00;;;;;;;;119797;1183;25537;-64
2023/07/06 13:15:38;;;;;;;;;14.67;12.33;;;;;;;;119484;1182;24925;-63
2023/07/06 13:18:14;;;;;;;;;10.00;10.00;;;;;;;;119484;1190;25351;-63
2023/07/06 13:20:45;;;;;;;;;9.50;8.00;;;;;;;;119854;1189;24867;-64
2023/07/06 13:23:13;;;;;;;;;9.00;8.50;;;;;;;;119480;1189;25251;-63
2023/07/06 13:25:44;;;;;;;;;11.25;10.50;;;;;;;;119851;1188;25465;-64
2023/07/06 13:28:15;;;;;;;;;12.50;11.50;;;;;;;;119866;1183;25309;-64
2023/07/06 13:30:48;;;;;;;;;10.50;9.50;;;;;;;;119880;1188;25413;-65
2023/07/06 13:33:18;;;;;;;;;11.00;11.00;;;;;;;;119466;1184;26209;-63
2023/07/06 13:35:47;;;;;;;;;11.00;11.00;;;;;;;;119721;1189;24771;-71
2023/07/06 13:38:15;;;;;;;;;12.00;11.50;;;;;;;;119457;1190;25001;-68
2023/07/06 13:40:48;;;;;;;;;19.00;12.00;;;;;;;;119702;1189;24880;-69
2023/07/06 13:43:18;;;;;;;;;11.50;11.50;;;;;;;;119499;1180;25611;-67
2023/07/06 13:45:49;;;;;;;;;16.00;12.00;;;;;;;;119505;1188;26064;-67
2023/07/06 13:48:18;;;;;;;;;16.33;11.33;;;;;;;;119818;1189;24820;-65
2023/07/06 13:50:48;;;;;;;;;14.00;10.00;;;;;;;;119737;1183;25446;-66
2023/07/06 13:53:17;;;;;;;;;12.00;12.00;;;;;;;;119833;1192;25140;-63
2023/07/06 13:55:54;;;;;;;;;15.50;10.50;;;;;;;;119860;1184;24782;-63
2023/07/06 13:58:25;;;;;;;;;12.00;11.00;;;;;;;;119499;1190;25270;-64
2023/07/06 14:00:55;;;;;;;;;14.75;12.25;;;;;;;;119501;1185;24875;-66
2023/07/06 14:03:30;;;;;;;;;11.33;11.33;;;;;;;;119496;1192;24932;-64
2023/07/06 14:05:58;;;;;;;;;16.75;14.00;;;;;;;;119516;1186;25579;-64
2023/07/06 14:08:27;;;;;;;;;10.33;10.00;;;;;;;;119682;1192;25108;-64
2023/07/06 14:10:55;;;;;;;;;15.67;13.33;;;;;;;;119848;1183;25214;-65
2023/07/06 14:13:24;;;;;;;;;15.00;12.67;;;;;;;;119823;1192;24984;-66
2023/07/06 14:15:53;;;;;;;;;13.00;12.00;;;;;;;;119828;1192;24713;-67
2023/07/06 14:18:23;;;;;;;;;13.67;12.33;;;;;;;;119482;1186;25531;-65
2023/07/06 14:20:52;;;;;;;;;11.50;10.75;;;;;;;;119492;1192;24829;-65
2023/07/06 14:23:20;;;;;;;;;16.33;12.67;;;;;;;;119708;1183;25210;-65
2023/07/06 14:25:48;;;;;;;;;12.50;12.50;;;;;;;;119845;1192;25587;-63
2023/07/06 14:28:18;;;;;;;;;11.25;11.25;;;;;;;;119856;1192;24911;-63
2023/07/06 14:30:48;;;;;;;;;15.00;12.00;;;;;;;;119500;1192;25080;-62
2023/07/06 14:33:18;;;;;;;;;13.00;12.33;;;;;;;;119872;1180;25270;-62